CDU weather

Camden Airport
New South Wales, Australia

Public forecast

Using degrees Celsius for public forecast. Weather courtesy of forecast.io.

METAR (pilot weather report)

Closest report is Sydney Kingsford Smith International Airport, 25.0 nm (46.4 km) ENE. Retrieved 2017/08/18 02:30 UTC (0 seconds ago):

YSSY 180230Z 28029G39KT CAVOK 17/M01 Q1006 FM0230 26030G45KT CAVOK FM0230 SEV TURB BLW 5000FT

TAF (pilot weather forecast)

Forecast is more than 12 hours old.

Closest forecast is Sydney Kingsford Smith International Airport, 25.0 nm (46.4 km) ENE. Retrieved 2017/08/17 00:00 UTC (1 day ago):

TAF YSSY 172300Z 1800/1906 26030G45KT CAVOK FM180900 26020G30KT CAVOK FM181400 23018KT CAVOK FM182300 20025G35KT 9999 SCT040